sensor_id;sensor_type;location;lat;lon;timestamp;P1;durP1;ratioP1;P2;durP2;ratioP2
70829;SDS011;58451;51.550;7.208;2023-05-10T00:00:22;10.20;;;4.90;;
70829;SDS011;58451;51.550;7.208;2023-05-10T00:01:55;10.00;;;4.50;;
70829;SDS011;58451;51.550;7.208;2023-05-10T00:03:27;10.20;;;4.30;;
70829;SDS011;58451;51.550;7.208;2023-05-10T00:04:58;10.00;;;4.50;;
70829;SDS011;58451;51.550;7.208;2023-05-10T00:06:30;9.90;;;4.10;;
70829;SDS011;58451;51.550;7.208;2023-05-10T00:08:03;11.10;;;4.70;;
70829;SDS011;58451;51.550;7.208;2023-05-10T00:09:35;10.80;;;5.10;;
70829;SDS011;58451;51.550;7.208;2023-05-10T00:11:06;11.00;;;5.40;;
70829;SDS011;58451;51.550;7.208;2023-05-10T00:12:38;12.90;;;5.30;;
70829;SDS011;58451;51.550;7.208;2023-05-10T00:14:11;11.00;;;5.00;;
70829;SDS011;58451;51.550;7.208;2023-05-10T00:15:43;11.30;;;4.90;;
70829;SDS011;58451;51.550;7.208;2023-05-10T00:17:15;13.90;;;5.50;;
70829;SDS011;58451;51.550;7.208;2023-05-10T00:18:46;10.20;;;4.60;;
70829;SDS011;58451;51.550;7.208;2023-05-10T00:20:18;10.80;;;4.80;;
70829;SDS011;58451;51.550;7.208;2023-05-10T00:21:50;11.80;;;4.90;;
70829;SDS011;58451;51.550;7.208;2023-05-10T00:23:22;11.20;;;5.40;;
70829;SDS011;58451;51.550;7.208;2023-05-10T00:24:57;9.00;;;3.80;;
70829;SDS011;58451;51.550;7.208;2023-05-10T00:26:29;10.60;;;4.60;;
70829;SDS011;58451;51.550;7.208;2023-05-10T00:28:01;10.00;;;4.00;;
70829;SDS011;58451;51.550;7.208;2023-05-10T00:29:33;8.60;;;3.60;;
70829;SDS011;58451;51.550;7.208;2023-05-10T00:31:05;11.40;;;5.20;;
70829;SDS011;58451;51.550;7.208;2023-05-10T00:32:37;12.00;;;5.20;;
70829;SDS011;58451;51.550;7.208;2023-05-10T00:34:09;12.00;;;5.00;;
70829;SDS011;58451;51.550;7.208;2023-05-10T00:35:40;12.40;;;4.40;;
70829;SDS011;58451;51.550;7.208;2023-05-10T00:37:13;10.90;;;3.80;;
70829;SDS011;58451;51.550;7.208;2023-05-10T00:38:45;9.70;;;3.20;;
70829;SDS011;58451;51.550;7.208;2023-05-10T00:40:17;9.40;;;3.50;;
70829;SDS011;58451;51.550;7.208;2023-05-10T00:41:51;10.30;;;4.10;;
70829;SDS011;58451;51.550;7.208;2023-05-10T00:43:23;9.50;;;3.90;;
70829;SDS011;58451;51.550;7.208;2023-05-10T00:44:55;10.10;;;3.90;;
70829;SDS011;58451;51.550;7.208;2023-05-10T00:46:27;10.90;;;4.20;;
70829;SDS011;58451;51.550;7.208;2023-05-10T00:48:01;10.20;;;4.10;;
70829;SDS011;58451;51.550;7.208;2023-05-10T00:49:35;10.30;;;3.60;;
70829;SDS011;58451;51.550;7.208;2023-05-10T00:51:08;11.40;;;4.40;;
70829;SDS011;58451;51.550;7.208;2023-05-10T00:52:41;11.40;;;4.10;;
70829;SDS011;58451;51.550;7.208;2023-05-10T00:54:14;10.10;;;3.80;;
70829;SDS011;58451;51.550;7.208;2023-05-10T00:55:47;10.30;;;4.10;;
70829;SDS011;58451;51.550;7.208;2023-05-10T00:57:19;11.70;;;4.60;;
70829;SDS011;58451;51.550;7.208;2023-05-10T00:58:51;11.00;;;3.70;;
70829;SDS011;58451;51.550;7.208;2023-05-10T01:00:23;8.80;;;3.50;;
70829;SDS011;58451;51.550;7.208;2023-05-10T01:01:55;9.80;;;3.70;;
70829;SDS011;58451;51.550;7.208;2023-05-10T01:03:29;12.20;;;4.80;;
70829;SDS011;58451;51.550;7.208;2023-05-10T01:05:02;11.90;;;4.50;;
70829;SDS011;58451;51.550;7.208;2023-05-10T01:06:35;11.00;;;4.40;;
70829;SDS011;58451;51.550;7.208;2023-05-10T01:08:07;11.20;;;4.90;;
70829;SDS011;58451;51.550;7.208;2023-05-10T01:09:40;9.80;;;3.40;;
70829;SDS011;58451;51.550;7.208;2023-05-10T01:11:11;11.10;;;4.60;;
70829;SDS011;58451;51.550;7.208;2023-05-10T01:12:45;12.60;;;5.50;;
70829;SDS011;58451;51.550;7.208;2023-05-10T01:14:19;13.70;;;5.30;;
70829;SDS011;58451;51.550;7.208;2023-05-10T01:15:51;11.30;;;4.60;;
70829;SDS011;58451;51.550;7.208;2023-05-10T01:17:24;11.50;;;4.70;;
70829;SDS011;58451;51.550;7.208;2023-05-10T01:18:57;12.50;;;5.10;;
70829;SDS011;58451;51.550;7.208;2023-05-10T01:20:36;13.50;;;5.60;;
70829;SDS011;58451;51.550;7.208;2023-05-10T01:22:50;11.90;;;5.30;;
70829;SDS011;58451;51.550;7.208;2023-05-10T01:35:18;9.60;;;3.80;;
70829;SDS011;58451;51.550;7.208;2023-05-10T01:37:11;7.60;;;2.70;;
70829;SDS011;58451;51.550;7.208;2023-05-10T01:38:53;8.50;;;3.20;;
70829;SDS011;58451;51.550;7.208;2023-05-10T01:40:38;8.60;;;3.20;;
70829;SDS011;58451;51.550;7.208;2023-05-10T01:42:18;9.60;;;3.70;;
70829;SDS011;58451;51.550;7.208;2023-05-10T01:44:17;9.60;;;3.70;;
70829;SDS011;58451;51.550;7.208;2023-05-10T01:46:14;8.60;;;3.30;;
70829;SDS011;58451;51.550;7.208;2023-05-10T01:48:11;8.40;;;3.40;;
70829;SDS011;58451;51.550;7.208;2023-05-10T01:49:49;9.20;;;3.70;;
70829;SDS011;58451;51.550;7.208;2023-05-10T01:51:25;9.70;;;4.00;;
70829;SDS011;58451;51.550;7.208;2023-05-10T01:53:01;7.80;;;3.00;;
70829;SDS011;58451;51.550;7.208;2023-05-10T01:54:38;8.10;;;3.20;;
70829;SDS011;58451;51.550;7.208;2023-05-10T01:56:14;15.00;;;3.40;;
70829;SDS011;58451;51.550;7.208;2023-05-10T01:57:51;8.00;;;3.00;;
70829;SDS011;58451;51.550;7.208;2023-05-10T01:59:30;9.10;;;3.60;;
70829;SDS011;58451;51.550;7.208;2023-05-10T02:01:11;8.20;;;2.80;;
70829;SDS011;58451;51.550;7.208;2023-05-10T02:02:46;7.90;;;2.80;;
70829;SDS011;58451;51.550;7.208;2023-05-10T02:04:21;8.70;;;3.80;;
70829;SDS011;58451;51.550;7.208;2023-05-10T02:05:57;9.00;;;3.50;;
70829;SDS011;58451;51.550;7.208;2023-05-10T02:07:30;9.30;;;3.50;;
70829;SDS011;58451;51.550;7.208;2023-05-10T02:09:06;8.50;;;3.20;;
70829;SDS011;58451;51.550;7.208;2023-05-10T02:10:39;8.80;;;3.50;;
70829;SDS011;58451;51.550;7.208;2023-05-10T02:12:13;9.50;;;3.60;;
70829;SDS011;58451;51.550;7.208;2023-05-10T02:13:49;11.20;;;4.10;;
70829;SDS011;58451;51.550;7.208;2023-05-10T02:15:23;7.80;;;3.10;;
70829;SDS011;58451;51.550;7.208;2023-05-10T02:16:56;8.70;;;3.60;;
70829;SDS011;58451;51.550;7.208;2023-05-10T02:18:32;7.50;;;2.70;;
70829;SDS011;58451;51.550;7.208;2023-05-10T02:20:08;10.20;;;3.60;;
70829;SDS011;58451;51.550;7.208;2023-05-10T02:21:42;9.80;;;3.90;;
70829;SDS011;58451;51.550;7.208;2023-05-10T02:23:16;8.60;;;3.30;;
70829;SDS011;58451;51.550;7.208;2023-05-10T02:24:50;10.70;;;3.60;;
70829;SDS011;58451;51.550;7.208;2023-05-10T02:26:23;8.70;;;3.10;;
70829;SDS011;58451;51.550;7.208;2023-05-10T02:27:57;11.10;;;4.40;;
70829;SDS011;58451;51.550;7.208;2023-05-10T02:29:32;9.30;;;3.90;;
70829;SDS011;58451;51.550;7.208;2023-05-10T02:31:05;9.50;;;4.00;;
70829;SDS011;58451;51.550;7.208;2023-05-10T02:32:38;10.00;;;3.50;;
70829;SDS011;58451;51.550;7.208;2023-05-10T02:34:12;9.60;;;3.80;;
70829;SDS011;58451;51.550;7.208;2023-05-10T02:35:46;9.80;;;4.30;;
70829;SDS011;58451;51.550;7.208;2023-05-10T02:37:20;10.70;;;4.10;;
70829;SDS011;58451;51.550;7.208;2023-05-10T02:38:53;10.40;;;4.20;;
70829;SDS011;58451;51.550;7.208;2023-05-10T02:40:27;9.70;;;4.10;;
70829;SDS011;58451;51.550;7.208;2023-05-10T02:42:00;11.80;;;4.80;;
70829;SDS011;58451;51.550;7.208;2023-05-10T02:43:34;10.00;;;4.10;;
70829;SDS011;58451;51.550;7.208;2023-05-10T02:45:10;10.50;;;4.50;;
70829;SDS011;58451;51.550;7.208;2023-05-10T02:46:46;13.30;;;4.80;;
70829;SDS011;58451;51.550;7.208;2023-05-10T02:48:19;10.00;;;4.10;;
70829;SDS011;58451;51.550;7.208;2023-05-10T02:49:52;12.30;;;4.90;;
70829;SDS011;58451;51.550;7.208;2023-05-10T02:51:25;10.80;;;4.60;;
70829;SDS011;58451;51.550;7.208;2023-05-10T02:53:08;11.20;;;4.90;;
70829;SDS011;58451;51.550;7.208;2023-05-10T02:54:49;10.20;;;4.00;;
70829;SDS011;58451;51.550;7.208;2023-05-10T02:56:25;11.70;;;4.80;;
70829;SDS011;58451;51.550;7.208;2023-05-10T02:58:11;11.10;;;4.80;;
70829;SDS011;58451;51.550;7.208;2023-05-10T02:59:43;11.20;;;4.80;;
70829;SDS011;58451;51.550;7.208;2023-05-10T03:01:16;12.50;;;5.30;;
70829;SDS011;58451;51.550;7.208;2023-05-10T03:02:48;11.30;;;5.00;;
70829;SDS011;58451;51.550;7.208;2023-05-10T03:04:20;12.60;;;5.00;;
70829;SDS011;58451;51.550;7.208;2023-05-10T03:05:52;11.90;;;4.60;;
70829;SDS011;58451;51.550;7.208;2023-05-10T03:07:27;12.80;;;5.80;;
70829;SDS011;58451;51.550;7.208;2023-05-10T03:08:59;11.40;;;4.70;;
70829;SDS011;58451;51.550;7.208;2023-05-10T03:10:32;14.00;;;4.90;;
70829;SDS011;58451;51.550;7.208;2023-05-10T03:15:33;12.60;;;4.50;;
70829;SDS011;58451;51.550;7.208;2023-05-10T03:17:25;16.10;;;5.70;;
70829;SDS011;58451;51.550;7.208;2023-05-10T03:21:02;13.80;;;5.50;;
70829;SDS011;58451;51.550;7.208;2023-05-10T03:22:45;13.00;;;5.30;;
70829;SDS011;58451;51.550;7.208;2023-05-10T03:24:23;15.50;;;6.30;;
70829;SDS011;58451;51.550;7.208;2023-05-10T03:26:00;13.70;;;5.80;;
70829;SDS011;58451;51.550;7.208;2023-05-10T03:27:35;14.40;;;6.30;;
70829;SDS011;58451;51.550;7.208;2023-05-10T03:29:11;16.20;;;7.10;;
70829;SDS011;58451;51.550;7.208;2023-05-10T03:30:46;15.90;;;6.90;;
70829;SDS011;58451;51.550;7.208;2023-05-10T03:32:18;17.20;;;6.70;;
70829;SDS011;58451;51.550;7.208;2023-05-10T03:33:52;16.00;;;6.60;;
70829;SDS011;58451;51.550;7.208;2023-05-10T03:35:29;19.40;;;7.20;;
70829;SDS011;58451;51.550;7.208;2023-05-10T03:37:00;15.30;;;6.90;;
70829;SDS011;58451;51.550;7.208;2023-05-10T03:38:34;15.80;;;6.50;;
70829;SDS011;58451;51.550;7.208;2023-05-10T03:40:06;17.90;;;7.20;;
70829;SDS011;58451;51.550;7.208;2023-05-10T03:41:40;15.60;;;6.90;;
70829;SDS011;58451;51.550;7.208;2023-05-10T03:43:12;16.30;;;7.10;;
70829;SDS011;58451;51.550;7.208;2023-05-10T03:44:44;17.30;;;8.30;;
70829;SDS011;58451;51.550;7.208;2023-05-10T03:46:16;19.40;;;7.40;;
70829;SDS011;58451;51.550;7.208;2023-05-10T03:47:48;15.00;;;6.60;;
70829;SDS011;58451;51.550;7.208;2023-05-10T03:49:20;17.00;;;7.40;;
70829;SDS011;58451;51.550;7.208;2023-05-10T03:50:52;19.60;;;8.50;;
70829;SDS011;58451;51.550;7.208;2023-05-10T03:52:24;16.50;;;7.30;;
70829;SDS011;58451;51.550;7.208;2023-05-10T03:53:55;16.50;;;7.00;;
70829;SDS011;58451;51.550;7.208;2023-05-10T03:55:28;19.60;;;7.80;;
70829;SDS011;58451;51.550;7.208;2023-05-10T03:57:00;19.10;;;7.40;;
70829;SDS011;58451;51.550;7.208;2023-05-10T03:58:34;19.50;;;7.80;;
70829;SDS011;58451;51.550;7.208;2023-05-10T04:00:07;17.20;;;7.00;;
70829;SDS011;58451;51.550;7.208;2023-05-10T04:01:45;17.10;;;7.20;;
70829;SDS011;58451;51.550;7.208;2023-05-10T04:03:17;20.80;;;8.20;;
70829;SDS011;58451;51.550;7.208;2023-05-10T04:04:50;18.80;;;7.90;;
70829;SDS011;58451;51.550;7.208;2023-05-10T04:06:22;17.60;;;6.50;;
70829;SDS011;58451;51.550;7.208;2023-05-10T04:07:55;18.20;;;6.90;;
70829;SDS011;58451;51.550;7.208;2023-05-10T04:09:26;20.90;;;7.90;;
70829;SDS011;58451;51.550;7.208;2023-05-10T04:11:08;18.60;;;7.40;;
70829;SDS011;58451;51.550;7.208;2023-05-10T04:12:40;17.90;;;7.00;;
70829;SDS011;58451;51.550;7.208;2023-05-10T04:14:13;18.40;;;7.30;;
70829;SDS011;58451;51.550;7.208;2023-05-10T04:15:44;16.80;;;7.20;;
70829;SDS011;58451;51.550;7.208;2023-05-10T04:17:16;23.00;;;8.60;;
70829;SDS011;58451;51.550;7.208;2023-05-10T04:18:48;20.80;;;8.10;;
70829;SDS011;58451;51.550;7.208;2023-05-10T04:20:20;18.70;;;7.30;;
70829;SDS011;58451;51.550;7.208;2023-05-10T04:21:52;19.60;;;7.80;;
70829;SDS011;58451;51.550;7.208;2023-05-10T04:23:25;22.30;;;8.80;;
70829;SDS011;58451;51.550;7.208;2023-05-10T04:24:57;21.10;;;8.30;;
70829;SDS011;58451;51.550;7.208;2023-05-10T04:26:28;21.90;;;9.00;;
70829;SDS011;58451;51.550;7.208;2023-05-10T04:28:00;24.00;;;9.30;;
70829;SDS011;58451;51.550;7.208;2023-05-10T04:29:32;22.00;;;9.70;;
70829;SDS011;58451;51.550;7.208;2023-05-10T04:31:06;21.80;;;8.20;;
70829;SDS011;58451;51.550;7.208;2023-05-10T04:32:39;22.90;;;8.80;;
70829;SDS011;58451;51.550;7.208;2023-05-10T04:34:11;23.30;;;9.20;;
70829;SDS011;58451;51.550;7.208;2023-05-10T04:35:43;20.00;;;8.20;;
70829;SDS011;58451;51.550;7.208;2023-05-10T04:37:16;21.70;;;9.40;;
70829;SDS011;58451;51.550;7.208;2023-05-10T04:38:48;21.90;;;8.90;;
70829;SDS011;58451;51.550;7.208;2023-05-10T04:40:20;24.80;;;10.00;;
70829;SDS011;58451;51.550;7.208;2023-05-10T04:41:52;22.60;;;9.30;;
70829;SDS011;58451;51.550;7.208;2023-05-10T04:43:24;25.30;;;10.50;;
70829;SDS011;58451;51.550;7.208;2023-05-10T04:44:56;25.50;;;10.30;;
70829;SDS011;58451;51.550;7.208;2023-05-10T04:46:27;25.20;;;10.30;;
70829;SDS011;58451;51.550;7.208;2023-05-10T04:47:59;24.40;;;9.60;;
70829;SDS011;58451;51.550;7.208;2023-05-10T04:49:31;23.90;;;9.50;;
70829;SDS011;58451;51.550;7.208;2023-05-10T04:51:03;27.60;;;11.00;;
70829;SDS011;58451;51.550;7.208;2023-05-10T04:52:35;23.30;;;9.90;;
70829;SDS011;58451;51.550;7.208;2023-05-10T04:54:08;25.20;;;10.20;;
70829;SDS011;58451;51.550;7.208;2023-05-10T04:55:39;26.40;;;10.60;;
70829;SDS011;58451;51.550;7.208;2023-05-10T04:57:11;26.60;;;11.10;;
70829;SDS011;58451;51.550;7.208;2023-05-10T04:58:43;28.50;;;11.90;;
70829;SDS011;58451;51.550;7.208;2023-05-10T05:00:15;29.40;;;12.30;;
70829;SDS011;58451;51.550;7.208;2023-05-10T05:01:48;26.90;;;11.00;;
70829;SDS011;58451;51.550;7.208;2023-05-10T05:03:20;29.10;;;11.30;;
70829;SDS011;58451;51.550;7.208;2023-05-10T05:04:52;33.60;;;13.40;;
70829;SDS011;58451;51.550;7.208;2023-05-10T05:06:24;31.30;;;11.80;;
70829;SDS011;58451;51.550;7.208;2023-05-10T05:07:56;29.60;;;12.00;;
70829;SDS011;58451;51.550;7.208;2023-05-10T05:09:28;34.10;;;13.20;;
70829;SDS011;58451;51.550;7.208;2023-05-10T05:11:00;31.80;;;12.90;;
70829;SDS011;58451;51.550;7.208;2023-05-10T05:12:31;39.10;;;15.30;;
70829;SDS011;58451;51.550;7.208;2023-05-10T05:14:03;33.10;;;14.00;;
70829;SDS011;58451;51.550;7.208;2023-05-10T05:15:35;38.00;;;15.20;;
70829;SDS011;58451;51.550;7.208;2023-05-10T05:17:07;33.90;;;14.10;;
70829;SDS011;58451;51.550;7.208;2023-05-10T05:18:39;34.90;;;14.60;;
70829;SDS011;58451;51.550;7.208;2023-05-10T05:20:11;33.30;;;13.70;;
70829;SDS011;58451;51.550;7.208;2023-05-10T05:21:44;41.70;;;16.40;;
70829;SDS011;58451;51.550;7.208;2023-05-10T05:23:16;38.80;;;15.90;;
70829;SDS011;58451;51.550;7.208;2023-05-10T05:24:48;42.60;;;16.60;;
70829;SDS011;58451;51.550;7.208;2023-05-10T05:26:20;37.90;;;14.80;;
70829;SDS011;58451;51.550;7.208;2023-05-10T05:27:52;41.80;;;15.80;;
70829;SDS011;58451;51.550;7.208;2023-05-10T05:29:24;35.00;;;14.60;;
70829;SDS011;58451;51.550;7.208;2023-05-10T05:30:56;37.80;;;15.30;;
70829;SDS011;58451;51.550;7.208;2023-05-10T05:32:28;35.90;;;15.30;;
70829;SDS011;58451;51.550;7.208;2023-05-10T05:34:00;40.30;;;15.60;;
70829;SDS011;58451;51.550;7.208;2023-05-10T05:35:33;44.30;;;17.40;;
70829;SDS011;58451;51.550;7.208;2023-05-10T05:37:05;37.10;;;15.30;;
70829;SDS011;58451;51.550;7.208;2023-05-10T05:38:38;38.00;;;14.40;;
70829;SDS011;58451;51.550;7.208;2023-05-10T05:40:13;38.90;;;16.00;;
70829;SDS011;58451;51.550;7.208;2023-05-10T05:41:46;38.50;;;15.70;;
70829;SDS011;58451;51.550;7.208;2023-05-10T05:43:19;40.20;;;16.90;;
70829;SDS011;58451;51.550;7.208;2023-05-10T05:44:50;40.00;;;16.30;;
70829;SDS011;58451;51.550;7.208;2023-05-10T05:46:22;41.60;;;16.60;;
70829;SDS011;58451;51.550;7.208;2023-05-10T05:47:54;43.90;;;17.30;;
70829;SDS011;58451;51.550;7.208;2023-05-10T05:49:26;36.70;;;14.20;;
70829;SDS011;58451;51.550;7.208;2023-05-10T05:50:58;37.60;;;15.40;;
70829;SDS011;58451;51.550;7.208;2023-05-10T05:52:30;38.90;;;16.70;;
70829;SDS011;58451;51.550;7.208;2023-05-10T05:54:02;44.90;;;19.00;;
70829;SDS011;58451;51.550;7.208;2023-05-10T05:55:35;36.20;;;15.30;;
70829;SDS011;58451;51.550;7.208;2023-05-10T05:57:07;39.60;;;17.10;;
70829;SDS011;58451;51.550;7.208;2023-05-10T05:58:39;39.90;;;15.90;;
70829;SDS011;58451;51.550;7.208;2023-05-10T06:00:11;42.20;;;18.10;;
70829;SDS011;58451;51.550;7.208;2023-05-10T06:01:43;40.30;;;16.50;;
70829;SDS011;58451;51.550;7.208;2023-05-10T06:03:16;39.90;;;16.00;;
70829;SDS011;58451;51.550;7.208;2023-05-10T06:04:48;41.80;;;17.40;;
70829;SDS011;58451;51.550;7.208;2023-05-10T06:06:19;39.70;;;16.30;;
70829;SDS011;58451;51.550;7.208;2023-05-10T06:07:51;43.50;;;18.60;;
70829;SDS011;58451;51.550;7.208;2023-05-10T06:09:23;37.20;;;16.10;;
70829;SDS011;58451;51.550;7.208;2023-05-10T06:10:56;43.60;;;18.20;;
70829;SDS011;58451;51.550;7.208;2023-05-10T06:12:27;43.50;;;18.40;;
70829;SDS011;58451;51.550;7.208;2023-05-10T06:13:59;42.10;;;17.60;;
70829;SDS011;58451;51.550;7.208;2023-05-10T06:15:32;42.90;;;18.60;;
70829;SDS011;58451;51.550;7.208;2023-05-10T06:17:04;40.20;;;17.40;;
70829;SDS011;58451;51.550;7.208;2023-05-10T06:18:36;41.00;;;18.20;;
70829;SDS011;58451;51.550;7.208;2023-05-10T06:20:09;35.10;;;15.10;;
70829;SDS011;58451;51.550;7.208;2023-05-10T06:21:41;38.70;;;16.90;;
70829;SDS011;58451;51.550;7.208;2023-05-10T06:23:13;36.80;;;16.80;;
70829;SDS011;58451;51.550;7.208;2023-05-10T06:24:44;41.30;;;19.50;;
70829;SDS011;58451;51.550;7.208;2023-05-10T06:26:16;37.90;;;17.00;;
70829;SDS011;58451;51.550;7.208;2023-05-10T06:27:48;41.90;;;18.90;;
70829;SDS011;58451;51.550;7.208;2023-05-10T06:29:24;39.70;;;17.30;;
70829;SDS011;58451;51.550;7.208;2023-05-10T06:30:56;44.80;;;19.00;;
70829;SDS011;58451;51.550;7.208;2023-05-10T06:32:28;42.20;;;18.60;;
70829;SDS011;58451;51.550;7.208;2023-05-10T06:34:00;42.90;;;18.90;;
70829;SDS011;58451;51.550;7.208;2023-05-10T06:35:31;42.50;;;18.00;;
70829;SDS011;58451;51.550;7.208;2023-05-10T06:37:04;38.30;;;18.40;;
70829;SDS011;58451;51.550;7.208;2023-05-10T06:38:36;42.70;;;19.30;;
70829;SDS011;58451;51.550;7.208;2023-05-10T06:40:09;38.10;;;16.70;;
70829;SDS011;58451;51.550;7.208;2023-05-10T06:41:41;38.20;;;18.70;;
70829;SDS011;58451;51.550;7.208;2023-05-10T06:43:13;39.30;;;18.60;;
70829;SDS011;58451;51.550;7.208;2023-05-10T06:44:45;40.50;;;19.20;;
70829;SDS011;58451;51.550;7.208;2023-05-10T06:46:17;38.10;;;19.00;;
70829;SDS011;58451;51.550;7.208;2023-05-10T06:47:49;37.50;;;18.10;;
70829;SDS011;58451;51.550;7.208;2023-05-10T06:49:21;32.10;;;16.20;;
70829;SDS011;58451;51.550;7.208;2023-05-10T06:50:53;37.70;;;18.00;;
70829;SDS011;58451;51.550;7.208;2023-05-10T06:52:25;35.70;;;16.80;;
70829;SDS011;58451;51.550;7.208;2023-05-10T06:53:57;33.20;;;14.90;;
70829;SDS011;58451;51.550;7.208;2023-05-10T06:55:28;33.20;;;16.60;;
70829;SDS011;58451;51.550;7.208;2023-05-10T06:57:00;33.90;;;16.90;;
70829;SDS011;58451;51.550;7.208;2023-05-10T06:58:43;35.40;;;17.30;;
70829;SDS011;58451;51.550;7.208;2023-05-10T07:00:16;34.80;;;16.10;;
70829;SDS011;58451;51.550;7.208;2023-05-10T07:01:48;31.80;;;14.90;;
70829;SDS011;58451;51.550;7.208;2023-05-10T07:03:20;34.10;;;16.60;;
70829;SDS011;58451;51.550;7.208;2023-05-10T07:04:52;30.30;;;14.50;;
70829;SDS011;58451;51.550;7.208;2023-05-10T07:06:24;33.70;;;16.40;;
70829;SDS011;58451;51.550;7.208;2023-05-10T07:08:04;32.40;;;16.40;;
70829;SDS011;58451;51.550;7.208;2023-05-10T07:09:36;32.80;;;16.60;;
70829;SDS011;58451;51.550;7.208;2023-05-10T07:11:07;31.60;;;14.80;;
70829;SDS011;58451;51.550;7.208;2023-05-10T07:12:39;36.30;;;17.30;;
70829;SDS011;58451;51.550;7.208;2023-05-10T07:14:11;33.60;;;16.90;;
70829;SDS011;58451;51.550;7.208;2023-05-10T07:15:43;35.10;;;16.90;;
70829;SDS011;58451;51.550;7.208;2023-05-10T07:17:16;31.90;;;16.30;;
70829;SDS011;58451;51.550;7.208;2023-05-10T07:18:48;36.10;;;16.70;;
70829;SDS011;58451;51.550;7.208;2023-05-10T07:20:19;35.10;;;17.00;;
70829;SDS011;58451;51.550;7.208;2023-05-10T07:21:51;37.80;;;17.80;;
70829;SDS011;58451;51.550;7.208;2023-05-10T07:23:23;31.50;;;15.40;;
70829;SDS011;58451;51.550;7.208;2023-05-10T07:24:55;31.40;;;15.50;;
70829;SDS011;58451;51.550;7.208;2023-05-10T07:26:27;33.20;;;16.30;;
70829;SDS011;58451;51.550;7.208;2023-05-10T07:27:58;32.10;;;15.30;;
70829;SDS011;58451;51.550;7.208;2023-05-10T07:29:30;34.40;;;16.70;;
70829;SDS011;58451;51.550;7.208;2023-05-10T07:31:02;35.20;;;17.00;;
70829;SDS011;58451;51.550;7.208;2023-05-10T07:32:34;33.70;;;17.00;;
70829;SDS011;58451;51.550;7.208;2023-05-10T07:34:06;33.90;;;16.30;;
70829;SDS011;58451;51.550;7.208;2023-05-10T07:35:38;35.80;;;16.60;;
70829;SDS011;58451;51.550;7.208;2023-05-10T07:37:10;33.60;;;16.80;;
70829;SDS011;58451;51.550;7.208;2023-05-10T07:38:42;33.40;;;17.40;;
70829;SDS011;58451;51.550;7.208;2023-05-10T07:40:13;35.00;;;17.80;;
70829;SDS011;58451;51.550;7.208;2023-05-10T07:41:48;30.90;;;16.50;;
70829;SDS011;58451;51.550;7.208;2023-05-10T07:43:20;38.50;;;19.80;;
70829;SDS011;58451;51.550;7.208;2023-05-10T07:44:51;39.00;;;19.30;;
70829;SDS011;58451;51.550;7.208;2023-05-10T07:46:23;35.40;;;18.30;;
70829;SDS011;58451;51.550;7.208;2023-05-10T07:47:55;36.70;;;18.20;;
70829;SDS011;58451;51.550;7.208;2023-05-10T07:49:27;31.60;;;15.60;;
70829;SDS011;58451;51.550;7.208;2023-05-10T07:50:59;31.60;;;15.80;;
70829;SDS011;58451;51.550;7.208;2023-05-10T07:52:31;30.50;;;16.00;;
70829;SDS011;58451;51.550;7.208;2023-05-10T07:54:02;30.80;;;16.40;;
70829;SDS011;58451;51.550;7.208;2023-05-10T07:55:34;33.90;;;17.10;;
70829;SDS011;58451;51.550;7.208;2023-05-10T07:57:06;30.30;;;16.10;;
70829;SDS011;58451;51.550;7.208;2023-05-10T07:58:38;34.10;;;18.80;;
70829;SDS011;58451;51.550;7.208;2023-05-10T08:00:12;33.60;;;18.00;;
70829;SDS011;58451;51.550;7.208;2023-05-10T08:01:45;37.40;;;19.90;;
70829;SDS011;58451;51.550;7.208;2023-05-10T08:03:17;29.80;;;14.90;;
70829;SDS011;58451;51.550;7.208;2023-05-10T08:04:49;30.20;;;16.30;;
70829;SDS011;58451;51.550;7.208;2023-05-10T08:06:21;33.30;;;18.00;;
70829;SDS011;58451;51.550;7.208;2023-05-10T08:07:53;33.30;;;17.60;;
70829;SDS011;58451;51.550;7.208;2023-05-10T08:09:25;36.40;;;19.70;;
70829;SDS011;58451;51.550;7.208;2023-05-10T08:10:57;31.20;;;17.70;;
70829;SDS011;58451;51.550;7.208;2023-05-10T08:12:28;36.60;;;18.80;;
70829;SDS011;58451;51.550;7.208;2023-05-10T08:14:01;36.30;;;20.50;;
70829;SDS011;58451;51.550;7.208;2023-05-10T08:15:32;34.60;;;20.20;;
70829;SDS011;58451;51.550;7.208;2023-05-10T08:17:04;31.50;;;17.50;;
70829;SDS011;58451;51.550;7.208;2023-05-10T08:18:37;34.90;;;19.20;;
70829;SDS011;58451;51.550;7.208;2023-05-10T08:20:10;31.40;;;17.30;;
70829;SDS011;58451;51.550;7.208;2023-05-10T08:21:45;29.70;;;15.10;;
70829;SDS011;58451;51.550;7.208;2023-05-10T08:23:17;29.00;;;14.50;;
70829;SDS011;58451;51.550;7.208;2023-05-10T08:24:49;28.10;;;14.80;;
70829;SDS011;58451;51.550;7.208;2023-05-10T08:26:20;29.70;;;15.50;;
70829;SDS011;58451;51.550;7.208;2023-05-10T08:27:53;28.30;;;14.20;;
70829;SDS011;58451;51.550;7.208;2023-05-10T08:29:24;27.70;;;14.40;;
70829;SDS011;58451;51.550;7.208;2023-05-10T08:30:58;32.50;;;16.00;;
70829;SDS011;58451;51.550;7.208;2023-05-10T08:32:30;34.20;;;17.00;;
70829;SDS011;58451;51.550;7.208;2023-05-10T08:34:02;29.30;;;14.50;;
70829;SDS011;58451;51.550;7.208;2023-05-10T08:35:34;29.20;;;14.40;;
70829;SDS011;58451;51.550;7.208;2023-05-10T08:37:06;29.00;;;15.80;;
70829;SDS011;58451;51.550;7.208;2023-05-10T08:38:38;29.30;;;15.30;;
70829;SDS011;58451;51.550;7.208;2023-05-10T08:40:11;30.70;;;14.80;;
70829;SDS011;58451;51.550;7.208;2023-05-10T08:41:44;28.90;;;14.00;;
70829;SDS011;58451;51.550;7.208;2023-05-10T08:43:19;27.40;;;14.00;;
70829;SDS011;58451;51.550;7.208;2023-05-10T08:44:52;27.70;;;12.90;;
70829;SDS011;58451;51.550;7.208;2023-05-10T08:46:26;26.00;;;12.70;;
70829;SDS011;58451;51.550;7.208;2023-05-10T08:48:01;27.30;;;13.10;;
70829;SDS011;58451;51.550;7.208;2023-05-10T08:49:36;31.50;;;14.60;;
70829;SDS011;58451;51.550;7.208;2023-05-10T08:51:09;26.50;;;12.40;;
70829;SDS011;58451;51.550;7.208;2023-05-10T08:52:47;27.70;;;13.20;;
70829;SDS011;58451;51.550;7.208;2023-05-10T08:54:23;25.70;;;12.50;;
70829;SDS011;58451;51.550;7.208;2023-05-10T08:55:55;26.70;;;12.70;;
70829;SDS011;58451;51.550;7.208;2023-05-10T08:57:28;23.10;;;11.50;;
70829;SDS011;58451;51.550;7.208;2023-05-10T08:59:00;26.10;;;11.70;;
70829;SDS011;58451;51.550;7.208;2023-05-10T09:00:33;23.00;;;10.50;;
70829;SDS011;58451;51.550;7.208;2023-05-10T09:02:06;22.20;;;9.60;;
70829;SDS011;58451;51.550;7.208;2023-05-10T09:03:39;19.00;;;8.70;;
70829;SDS011;58451;51.550;7.208;2023-05-10T09:05:12;23.10;;;10.30;;
70829;SDS011;58451;51.550;7.208;2023-05-10T09:06:44;22.00;;;9.90;;
70829;SDS011;58451;51.550;7.208;2023-05-10T09:08:16;18.80;;;8.60;;
70829;SDS011;58451;51.550;7.208;2023-05-10T09:09:49;20.70;;;8.80;;
70829;SDS011;58451;51.550;7.208;2023-05-10T09:11:22;21.70;;;9.40;;
70829;SDS011;58451;51.550;7.208;2023-05-10T09:12:56;17.40;;;8.00;;
70829;SDS011;58451;51.550;7.208;2023-05-10T09:14:30;19.60;;;9.40;;
70829;SDS011;58451;51.550;7.208;2023-05-10T09:16:05;18.80;;;8.80;;
70829;SDS011;58451;51.550;7.208;2023-05-10T09:17:52;20.70;;;9.00;;
70829;SDS011;58451;51.550;7.208;2023-05-10T09:19:24;22.20;;;9.60;;
70829;SDS011;58451;51.550;7.208;2023-05-10T09:20:56;21.60;;;9.70;;
70829;SDS011;58451;51.550;7.208;2023-05-10T09:22:28;20.60;;;10.20;;
70829;SDS011;58451;51.550;7.208;2023-05-10T09:24:03;18.90;;;8.90;;
70829;SDS011;58451;51.550;7.208;2023-05-10T09:25:36;20.40;;;9.60;;
70829;SDS011;58451;51.550;7.208;2023-05-10T09:27:10;22.20;;;9.60;;
70829;SDS011;58451;51.550;7.208;2023-05-10T09:28:55;19.00;;;8.60;;